Time;durP1;ratioP1;P1;durP2;ratioP2;P2;SDS_P1;SDS_P2;PMS_P1;PMS_P2;Temp;Humidity;BMP_temperature;BMP_pressure;BME280_temperature;BME280_humidity;BME280_pressure;Samples;Min_cycle;Max_cycle;Signal;HPM_P1;HPM_P2
2021/12/15 00:00:42;;;;;;;12.32;10.20;;;5.50;99.90;;;;;;4992507;28;20211;-84
2021/12/15 00:03:10;;;;;;;11.95;10.45;;;5.50;99.90;;;;;;4992943;28;20231;-84
2021/12/15 00:05:41;;;;;;;14.48;12.02;;;5.50;99.90;;;;;;4996363;28;20238;-84
2021/12/15 00:08:11;;;;;;;13.60;10.95;;;5.50;99.90;;;;;;4996220;28;20305;-84
2021/12/15 00:10:40;;;;;;;12.02;10.82;;;5.60;99.90;;;;;;4995822;28;20212;-83
2021/12/15 00:13:10;;;;;;;12.50;11.13;;;5.60;99.90;;;;;;4996102;28;20290;-84
2021/12/15 00:15:38;;;;;;;13.50;10.85;;;5.60;99.90;;;;;;4996644;28;20211;-83
2021/12/15 00:18:07;;;;;;;12.57;11.38;;;5.70;99.90;;;;;;4995799;28;20254;-83
2021/12/15 00:20:36;;;;;;;12.75;11.45;;;5.60;99.90;;;;;;4994780;28;20267;-83
2021/12/15 00:23:06;;;;;;;14.25;12.40;;;5.60;99.90;;;;;;4995500;28;20238;-83
2021/12/15 00:25:38;;;;;;;14.55;11.85;;;5.70;99.90;;;;;;4995519;28;20303;-84
2021/12/15 00:28:07;;;;;;;12.98;10.85;;;5.70;99.90;;;;;;4995664;28;20310;-83
2021/12/15 00:30:36;;;;;;;11.35;10.35;;;5.70;99.90;;;;;;4995162;28;20211;-84
2021/12/15 00:33:04;;;;;;;13.45;11.63;;;5.60;99.90;;;;;;4995452;28;20262;-84
2021/12/15 00:35:35;;;;;;;11.95;10.77;;;5.60;99.90;;;;;;4996042;28;20262;-85
2021/12/15 00:38:06;;;;;;;11.45;10.40;;;5.50;99.90;;;;;;4995637;28;20331;-83
2021/12/15 00:40:35;;;;;;;12.07;10.48;;;5.60;99.90;;;;;;4995105;28;20212;-84
2021/12/15 00:43:04;;;;;;;10.88;9.88;;;5.60;99.90;;;;;;4995437;28;20314;-84
2021/12/15 00:45:33;;;;;;;11.80;10.60;;;5.60;99.90;;;;;;4995379;28;20242;-84
2021/12/15 00:48:01;;;;;;;10.32;9.32;;;5.50;99.90;;;;;;4995294;28;20306;-84
2021/12/15 00:50:33;;;;;;;11.05;9.95;;;5.50;99.90;;;;;;4995093;28;20239;-84
2021/12/15 00:53:02;;;;;;;10.85;9.85;;;5.60;99.90;;;;;;4995908;28;20208;-83
2021/12/15 00:55:33;;;;;;;14.15;10.13;;;5.50;99.90;;;;;;4998947;28;20223;-82
2021/12/15 00:58:03;;;;;;;13.20;9.90;;;5.50;99.90;;;;;;5005611;28;20227;-81
2021/12/15 01:00:36;;;;;;;13.68;10.32;;;5.60;99.90;;;;;;5005458;28;20212;-81
2021/12/15 01:03:05;;;;;;;10.60;9.52;;;5.50;99.90;;;;;;4995100;28;20274;-82
2021/12/15 01:05:38;;;;;;;9.68;8.75;;;5.50;99.90;;;;;;4994889;28;20299;-82
2021/12/15 01:08:10;;;;;;;10.60;9.27;;;5.50;99.90;;;;;;4995412;28;20237;-82
2021/12/15 01:10:56;;;;;;;10.10;9.20;;;5.50;99.90;;;;;;4994078;28;20208;-82
2021/12/15 01:21:43;;;;;;;9.35;8.55;;;5.40;99.90;;;;;;4994640;28;20253;-82
2021/12/15 01:24:12;;;;;;;10.52;9.52;;;5.50;99.90;;;;;;4994449;28;20224;-83
2021/12/15 01:26:42;;;;;;;11.70;10.48;;;5.40;99.90;;;;;;4994073;28;20236;-82
2021/12/15 01:29:10;;;;;;;10.30;9.38;;;5.40;99.90;;;;;;4993700;28;20207;-83
2021/12/15 01:31:39;;;;;;;10.93;9.88;;;5.40;99.90;;;;;;4994348;28;20211;-82
2021/12/15 01:34:08;;;;;;;9.70;8.70;;;5.40;99.90;;;;;;4994934;28;20215;-83
2021/12/15 01:36:36;;;;;;;13.38;10.52;;;5.40;99.90;;;;;;4994498;28;20255;-83
2021/12/15 01:39:05;;;;;;;11.15;10.07;;;5.40;99.90;;;;;;4994147;28;20204;-82
2021/12/15 01:41:34;;;;;;;12.38;11.00;;;5.40;99.90;;;;;;4994465;28;20210;-83
2021/12/15 01:46:57;;;;;;;11.30;10.20;;;5.50;99.90;;;;;;4994078;28;20247;-83
2021/12/15 01:49:29;;;;;;;11.52;10.25;;;5.40;99.90;;;;;;4993654;28;20207;-83
2021/12/15 01:52:01;;;;;;;11.80;10.65;;;5.40;99.90;;;;;;4993984;28;20215;-83
2021/12/15 01:54:31;;;;;;;13.27;11.68;;;5.40;99.90;;;;;;4994301;28;20203;-83
2021/12/15 01:57:01;;;;;;;12.25;11.05;;;5.40;99.90;;;;;;4994162;28;20255;-83
2021/12/15 01:59:31;;;;;;;10.77;9.73;;;5.40;99.90;;;;;;4994037;28;20298;-83
2021/12/15 02:02:01;;;;;;;11.15;10.10;;;5.40;99.90;;;;;;4994278;28;20208;-83
2021/12/15 02:04:30;;;;;;;11.98;10.77;;;5.50;99.90;;;;;;4993976;28;20228;-83
2021/12/15 02:06:58;;;;;;;12.15;10.85;;;5.50;99.90;;;;;;4993904;28;20242;-83
2021/12/15 02:09:47;;;;;;;11.38;10.13;;;5.50;99.90;;;;;;4993814;28;20204;-83
2021/12/15 02:12:19;;;;;;;11.73;10.55;;;5.50;99.90;;;;;;4994462;28;20223;-83
2021/12/15 02:14:50;;;;;;;12.63;11.43;;;5.50;99.90;;;;;;4993730;28;20290;-83
2021/12/15 02:17:18;;;;;;;11.02;10.05;;;5.50;99.90;;;;;;4993830;28;20307;-83
2021/12/15 02:19:48;;;;;;;11.77;10.77;;;5.50;99.90;;;;;;4992985;28;20235;-83
2021/12/15 02:22:18;;;;;;;13.95;11.77;;;5.50;99.90;;;;;;4993857;28;20275;-83
2021/12/15 02:24:49;;;;;;;13.82;10.90;;;5.50;99.90;;;;;;4993643;28;20219;-83
2021/12/15 02:27:17;;;;;;;10.48;9.48;;;5.50;99.90;;;;;;4992734;28;20246;-83
2021/12/15 02:29:49;;;;;;;14.30;9.75;;;5.60;99.90;;;;;;4993009;28;20208;-83
2021/12/15 02:32:27;;;;;;;11.40;10.30;;;5.50;99.90;;;;;;4993678;28;20242;-83
2021/12/15 02:37:03;;;;;;;11.05;9.80;;;5.60;99.90;;;;;;4993353;28;20234;-83
2021/12/15 02:37:46;;;;;;;9.80;8.95;;;5.60;99.90;;;;;;4993982;28;20323;-83
2021/12/15 02:40:18;;;;;;;9.60;8.70;;;5.60;99.90;;;;;;4993038;28;20246;-83
2021/12/15 02:42:49;;;;;;;12.23;9.98;;;5.60;99.90;;;;;;4993773;28;20303;-83
2021/12/15 02:45:20;;;;;;;10.18;8.43;;;5.60;99.90;;;;;;4993203;28;20227;-83
2021/12/15 02:47:49;;;;;;;9.88;8.85;;;5.60;99.90;;;;;;4993260;28;20322;-83
2021/12/15 02:50:21;;;;;;;9.65;8.75;;;5.60;99.90;;;;;;4992996;28;20282;-83
2021/12/15 02:52:51;;;;;;;9.55;8.63;;;5.60;99.90;;;;;;4993423;28;20235;-83
2021/12/15 02:55:20;;;;;;;8.45;7.65;;;5.60;99.90;;;;;;4993308;28;20224;-83
2021/12/15 02:57:49;;;;;;;10.38;8.52;;;5.60;99.90;;;;;;4993295;28;20291;-83
2021/12/15 03:00:22;;;;;;;11.52;8.40;;;5.60;99.90;;;;;;5001950;28;20267;-82
2021/12/15 03:03:22;;;;;;;8.20;7.50;;;5.60;99.90;;;;;;4999165;28;20234;-83
2021/12/15 03:05:57;;;;;;;9.52;7.32;;;5.70;99.90;;;;;;4993510;28;20310;-83
2021/12/15 03:08:47;;;;;;;8.48;7.68;;;5.60;99.90;;;;;;4992988;28;20306;-84
2021/12/15 03:16:48;;;;;;;9.48;7.22;;;5.60;99.90;;;;;;4992975;28;20239;-83
2021/12/15 03:19:17;;;;;;;7.40;6.70;;;5.60;99.90;;;;;;4992678;28;20204;-83
2021/12/15 03:21:45;;;;;;;6.85;6.30;;;5.60;99.90;;;;;;4992628;28;20267;-84
2021/12/15 03:24:19;;;;;;;7.43;6.72;;;5.60;99.90;;;;;;4992428;28;20323;-84
2021/12/15 03:26:55;;;;;;;7.32;6.65;;;5.60;99.90;;;;;;4992810;28;20265;-83
2021/12/15 03:35:22;;;;;;;9.32;6.93;;;5.60;99.90;;;;;;4971443;28;20211;-83
2021/12/15 03:37:53;;;;;;;7.35;6.20;;;5.60;99.90;;;;;;4972438;28;20228;-83
2021/12/15 03:40:27;;;;;;;5.95;5.45;;;5.60;99.90;;;;;;4986487;28;20211;-84
2021/12/15 03:42:59;;;;;;;7.72;6.97;;;5.60;99.90;;;;;;4996976;28;20303;-83
2021/12/15 03:45:30;;;;;;;6.85;6.18;;;5.60;99.90;;;;;;4996944;28;20255;-83
2021/12/15 03:48:01;;;;;;;5.95;5.45;;;5.60;99.90;;;;;;4996722;28;20315;-84
2021/12/15 03:50:30;;;;;;;6.85;5.88;;;5.60;99.90;;;;;;4996158;28;20290;-84
2021/12/15 03:52:59;;;;;;;5.47;4.97;;;5.60;99.90;;;;;;4996619;28;20296;-84
2021/12/15 03:55:31;;;;;;;6.32;5.72;;;5.60;99.90;;;;;;4996301;28;20226;-85
2021/12/15 03:58:01;;;;;;;5.13;4.72;;;5.60;99.90;;;;;;4996055;28;20243;-84
2021/12/15 04:00:30;;;;;;;6.60;6.00;;;5.60;99.90;;;;;;4996004;28;20264;-84
2021/12/15 04:02:58;;;;;;;4.97;4.57;;;5.60;99.90;;;;;;4996432;28;20279;-84
2021/12/15 04:05:27;;;;;;;5.63;5.13;;;5.60;99.90;;;;;;4996018;28;20215;-84
2021/12/15 04:07:57;;;;;;;5.15;4.63;;;5.60;99.90;;;;;;4996210;28;20314;-84
2021/12/15 04:10:29;;;;;;;6.85;4.47;;;5.60;99.90;;;;;;4995931;28;20238;-84
2021/12/15 04:12:57;;;;;;;5.25;4.75;;;5.60;99.90;;;;;;4996127;28;20268;-84
2021/12/15 04:15:29;;;;;;;6.32;5.78;;;5.60;99.90;;;;;;4996048;28;20257;-84
2021/12/15 04:18:00;;;;;;;5.25;4.85;;;5.50;99.90;;;;;;4996031;28;20334;-84
2021/12/15 04:20:32;;;;;;;5.60;5.10;;;5.60;99.90;;;;;;4995470;28;20291;-84
2021/12/15 04:23:00;;;;;;;5.65;5.15;;;5.60;99.90;;;;;;4996317;28;20310;-84
2021/12/15 04:25:32;;;;;;;5.20;4.80;;;5.60;99.90;;;;;;4995989;28;20262;-84
2021/12/15 04:28:04;;;;;;;5.68;5.18;;;5.60;99.90;;;;;;4995804;28;20232;-84
2021/12/15 04:30:35;;;;;;;5.40;4.97;;;5.60;99.90;;;;;;4995123;28;20263;-84
2021/12/15 04:33:10;;;;;;;8.05;6.75;;;5.60;99.90;;;;;;4995993;28;20290;-84
2021/12/15 04:35:39;;;;;;;6.00;5.40;;;5.60;99.90;;;;;;4996035;28;20227;-84
2021/12/15 04:38:08;;;;;;;4.78;4.38;;;5.60;99.90;;;;;;4995705;28;20251;-84
2021/12/15 04:40:38;;;;;;;5.80;5.22;;;5.60;99.90;;;;;;4995125;28;20208;-84
2021/12/15 04:43:07;;;;;;;4.95;4.53;;;5.60;99.90;;;;;;4995481;28;20219;-84
2021/12/15 04:45:35;;;;;;;4.70;4.35;;;5.60;99.90;;;;;;4996046;28;20319;-84
2021/12/15 04:48:04;;;;;;;6.30;5.70;;;5.60;99.90;;;;;;4995265;28;20283;-83
2021/12/15 04:50:33;;;;;;;5.72;5.15;;;5.60;99.90;;;;;;4994637;28;20207;-84
2021/12/15 04:53:03;;;;;;;5.22;4.82;;;5.60;99.90;;;;;;4996006;28;20286;-84
2021/12/15 04:55:33;;;;;;;5.53;5.03;;;5.70;99.90;;;;;;4995239;28;20207;-84
2021/12/15 04:58:06;;;;;;;6.30;5.70;;;5.60;99.90;;;;;;4995524;28;20254;-84
2021/12/15 05:00:37;;;;;;;6.18;5.57;;;5.60;99.90;;;;;;5002308;28;20246;-81
2021/12/15 05:03:06;;;;;;;5.90;4.97;;;5.70;99.90;;;;;;5006113;28;20212;-83
2021/12/15 05:05:35;;;;;;;6.13;5.50;;;5.70;99.90;;;;;;5002399;28;20243;-84
2021/12/15 05:08:05;;;;;;;5.22;4.82;;;5.70;99.90;;;;;;4995429;28;20220;-83
2021/12/15 05:10:34;;;;;;;5.57;4.82;;;5.60;99.90;;;;;;4995068;28;20231;-84
2021/12/15 05:13:06;;;;;;;5.15;4.78;;;5.70;99.90;;;;;;4995259;28;20279;-83
2021/12/15 05:15:35;;;;;;;5.57;5.03;;;5.70;99.90;;;;;;4995041;28;20227;-84
2021/12/15 05:18:06;;;;;;;6.65;5.47;;;5.70;99.90;;;;;;4995033;28;20251;-84
2021/12/15 05:20:38;;;;;;;4.57;4.18;;;5.70;99.90;;;;;;4994198;28;20273;-83
2021/12/15 05:23:07;;;;;;;4.88;4.47;;;5.70;99.90;;;;;;4995317;28;20216;-84
2021/12/15 05:25:36;;;;;;;5.53;5.03;;;5.70;99.90;;;;;;4994696;28;20224;-84
2021/12/15 05:28:07;;;;;;;5.05;4.50;;;5.70;99.90;;;;;;4994500;28;20262;-84
2021/12/15 05:30:36;;;;;;;6.07;4.63;;;5.70;99.90;;;;;;4994428;28;20231;-83
2021/12/15 05:33:04;;;;;;;4.97;4.53;;;5.60;99.90;;;;;;4994804;28;20235;-83
2021/12/15 05:35:34;;;;;;;5.45;5.00;;;5.60;99.90;;;;;;4995060;28;20204;-83
2021/12/15 05:38:04;;;;;;;5.10;4.68;;;5.70;99.90;;;;;;4994484;28;20247;-84
2021/12/15 05:40:33;;;;;;;6.28;4.97;;;5.70;99.90;;;;;;4994065;28;20235;-84
2021/12/15 05:43:02;;;;;;;8.13;5.47;;;5.70;99.90;;;;;;4994637;28;20231;-83
2021/12/15 05:45:34;;;;;;;5.75;5.18;;;5.70;99.90;;;;;;4994728;28;20251;-84
2021/12/15 05:48:06;;;;;;;5.00;4.57;;;5.70;99.90;;;;;;4994461;28;20223;-84
2021/12/15 05:50:35;;;;;;;6.40;5.55;;;5.70;99.90;;;;;;4993849;28;20262;-84
2021/12/15 05:53:06;;;;;;;6.28;5.78;;;5.70;99.90;;;;;;4994409;28;20231;-84
2021/12/15 05:55:34;;;;;;;5.50;5.07;;;5.70;99.90;;;;;;4994601;28;20238;-84
2021/12/15 05:58:04;;;;;;;5.57;5.07;;;5.80;99.90;;;;;;4993891;28;20280;-84
2021/12/15 06:00:38;;;;;;;6.03;5.38;;;5.80;99.90;;;;;;4994002;28;20262;-84
2021/12/15 06:03:07;;;;;;;7.72;5.05;;;5.80;99.90;;;;;;4994666;28;20231;-83
2021/12/15 06:05:36;;;;;;;6.22;5.43;;;5.80;99.90;;;;;;4993850;28;20251;-83
2021/12/15 06:08:07;;;;;;;6.32;5.68;;;5.80;99.90;;;;;;4993878;28;20232;-83
2021/12/15 06:10:37;;;;;;;5.80;5.22;;;5.90;99.90;;;;;;4993429;28;20208;-83
2021/12/15 06:13:11;;;;;;;5.78;5.28;;;5.90;99.90;;;;;;4994312;28;20227;-85
2021/12/15 06:15:42;;;;;;;5.80;5.22;;;5.80;99.90;;;;;;4994017;28;20299;-85
2021/12/15 06:18:13;;;;;;;5.30;4.65;;;5.80;99.90;;;;;;4994071;28;20235;-85
2021/12/15 06:20:42;;;;;;;5.88;5.28;;;5.80;99.90;;;;;;4993351;28;20235;-84
2021/12/15 06:23:17;;;;;;;5.80;5.20;;;5.80;99.90;;;;;;4993600;28;20271;-84
2021/12/15 06:25:47;;;;;;;9.30;5.70;;;5.80;99.90;;;;;;4993646;28;20301;-85
2021/12/15 06:28:16;;;;;;;5.65;5.15;;;5.80;99.90;;;;;;4994067;28;20248;-83
2021/12/15 06:30:46;;;;;;;5.30;4.90;;;5.80;99.90;;;;;;4994008;28;20216;-85
2021/12/15 06:33:16;;;;;;;6.68;6.03;;;5.80;99.90;;;;;;4993860;28;20207;-84
2021/12/15 06:35:52;;;;;;;6.20;5.70;;;5.80;99.90;;;;;;4993380;28;20228;-84
2021/12/15 06:38:22;;;;;;;5.75;5.25;;;5.80;99.90;;;;;;4993554;28;20251;-84
2021/12/15 06:40:51;;;;;;;6.78;6.15;;;5.90;99.90;;;;;;4993120;28;20206;-84
2021/12/15 06:43:20;;;;;;;5.25;4.85;;;5.90;99.90;;;;;;4993680;28;20269;-84
2021/12/15 06:46:05;;;;;;;6.30;5.70;;;5.90;99.90;;;;;;4993471;28;20228;-85
2021/12/15 07:00:00;;;;;;;7.28;6.57;;;6.00;99.90;;;;;;4992833;28;20207;-85
2021/12/15 07:02:31;;;;;;;7.30;6.60;;;6.00;99.90;;;;;;4994288;28;20234;-84
2021/12/15 07:05:00;;;;;;;7.32;6.63;;;6.10;99.90;;;;;;5001807;28;20275;-83
2021/12/15 07:07:28;;;;;;;7.68;6.90;;;6.10;99.90;;;;;;4998721;28;20251;-85
2021/12/15 07:09:57;;;;;;;7.15;6.22;;;6.10;99.90;;;;;;4993016;28;20286;-84
2021/12/15 07:12:29;;;;;;;6.50;5.90;;;6.10;99.90;;;;;;4992863;28;20219;-85
2021/12/15 07:14:58;;;;;;;6.90;6.30;;;6.10;99.90;;;;;;4993200;28;20220;-84
2021/12/15 07:17:28;;;;;;;6.63;6.03;;;6.10;99.90;;;;;;4992549;28;20306;-85
2021/12/15 07:20:07;;;;;;;6.72;6.10;;;6.20;99.90;;;;;;4992686;28;20230;-85
2021/12/15 07:22:43;;;;;;;7.43;6.70;;;6.20;99.90;;;;;;4993249;28;20301;-85
2021/12/15 07:25:14;;;;;;;5.93;5.43;;;6.10;99.90;;;;;;4993356;28;20305;-85
2021/12/15 07:27:43;;;;;;;7.78;6.80;;;6.10;99.90;;;;;;4992337;28;20262;-85
2021/12/15 07:30:12;;;;;;;6.93;6.07;;;6.10;99.90;;;;;;4992491;28;20302;-84
2021/12/15 07:32:41;;;;;;;6.18;5.57;;;6.20;99.90;;;;;;4992728;28;20294;-84
2021/12/15 07:35:13;;;;;;;5.32;4.85;;;6.10;99.90;;;;;;4992815;28;20231;-85
2021/12/15 07:37:42;;;;;;;5.35;4.95;;;6.10;99.90;;;;;;4992903;28;20231;-84
2021/12/15 07:40:18;;;;;;;17.15;5.35;;;6.20;99.90;;;;;;4992261;28;20290;-84
2021/12/15 07:42:57;;;;;;;5.38;4.95;;;6.10;99.90;;;;;;4992923;28;20227;-85
2021/12/15 07:45:27;;;;;;;6.57;5.97;;;6.10;99.90;;;;;;4992581;28;20279;-84
2021/12/15 07:47:58;;;;;;;6.40;5.63;;;6.10;99.90;;;;;;4992551;28;20236;-84
2021/12/15 07:50:29;;;;;;;10.60;5.80;;;6.10;99.90;;;;;;4992298;28;20291;-84
2021/12/15 07:52:57;;;;;;;5.85;5.32;;;6.00;99.90;;;;;;4993152;28;20295;-84
2021/12/15 07:55:27;;;;;;;6.70;6.05;;;6.00;99.90;;;;;;4992923;28;20272;-84
2021/12/15 07:57:55;;;;;;;6.00;5.43;;;6.10;99.90;;;;;;4992251;28;20307;-84
2021/12/15 08:00:26;;;;;;;6.30;5.32;;;6.10;99.90;;;;;;4992365;28;20356;-84
2021/12/15 08:02:54;;;;;;;5.00;4.60;;;6.10;99.90;;;;;;4992643;28;20224;-85
2021/12/15 08:05:24;;;;;;;10.75;6.15;;;6.10;99.90;;;;;;4992560;28;20211;-85
2021/12/15 08:07:54;;;;;;;6.07;5.57;;;6.10;99.90;;;;;;4992739;28;20297;-85
2021/12/15 08:10:23;;;;;;;5.45;5.03;;;6.20;99.90;;;;;;4992328;28;20207;-85
2021/12/15 08:12:51;;;;;;;6.03;5.40;;;6.20;99.90;;;;;;4992739;28;20208;-85
2021/12/15 08:15:20;;;;;;;6.68;6.07;;;6.20;99.90;;;;;;4992797;28;20246;-84
2021/12/15 08:17:51;;;;;;;5.10;4.70;;;6.20;99.90;;;;;;4992362;28;20312;-84
2021/12/15 08:20:22;;;;;;;5.43;4.93;;;6.30;99.90;;;;;;4992109;28;20285;-84
2021/12/15 08:22:51;;;;;;;5.25;4.85;;;6.30;99.90;;;;;;4992925;28;20208;-84
2021/12/15 08:25:22;;;;;;;6.25;5.65;;;6.30;99.90;;;;;;4994139;28;20211;-84
2021/12/15 08:27:51;;;;;;;5.72;5.22;;;6.30;99.90;;;;;;4995664;28;20232;-84
2021/12/15 08:30:24;;;;;;;5.85;5.35;;;6.40;99.90;;;;;;4995341;28;20236;-84
2021/12/15 08:33:00;;;;;;;5.78;5.28;;;6.40;99.90;;;;;;4995963;28;20222;-84
2021/12/15 08:35:32;;;;;;;7.07;6.38;;;6.50;99.90;;;;;;4995870;28;20231;-85
2021/12/15 08:38:00;;;;;;;6.25;5.70;;;6.50;99.90;;;;;;4995827;28;20250;-84
2021/12/15 08:40:30;;;;;;;6.30;5.78;;;6.50;99.90;;;;;;4995049;28;20234;-84
2021/12/15 08:43:01;;;;;;;6.50;6.00;;;6.50;99.90;;;;;;4996050;28;20211;-84
2021/12/15 08:45:29;;;;;;;5.05;4.65;;;6.50;99.90;;;;;;4996058;28;20220;-85
2021/12/15 08:48:02;;;;;;;6.75;6.03;;;6.50;99.90;;;;;;4995446;28;20283;-84
2021/12/15 08:50:33;;;;;;;5.13;4.75;;;6.50;99.90;;;;;;4995084;28;20231;-84
2021/12/15 08:53:04;;;;;;;7.93;5.95;;;6.50;99.90;;;;;;4995158;28;20268;-84
2021/12/15 08:55:34;;;;;;;6.47;5.80;;;6.50;99.90;;;;;;4995712;28;20212;-85
2021/12/15 08:58:05;;;;;;;5.75;5.25;;;6.50;99.90;;;;;;4995480;28;20251;-84
2021/12/15 09:00:34;;;;;;;7.07;6.25;;;6.50;99.90;;;;;;4994795;28;20207;-84
2021/12/15 09:03:03;;;;;;;8.13;6.25;;;6.50;99.90;;;;;;4995604;28;20214;-85
2021/12/15 09:05:31;;;;;;;6.45;5.85;;;6.50;99.90;;;;;;4995181;28;20204;-84
2021/12/15 09:08:01;;;;;;;7.22;6.03;;;6.50;99.90;;;;;;5001727;28;20295;-83
2021/12/15 09:10:32;;;;;;;6.43;5.82;;;6.50;99.90;;;;;;5004371;28;20216;-83
2021/12/15 09:13:03;;;;;;;8.90;6.57;;;6.50;99.90;;;;;;5002025;28;20235;-84
2021/12/15 09:15:32;;;;;;;6.28;5.72;;;6.50;99.90;;;;;;4995952;28;20286;-84
2021/12/15 09:18:07;;;;;;;7.10;6.43;;;6.50;99.90;;;;;;4995056;28;20224;-85
2021/12/15 09:20:38;;;;;;;5.80;5.35;;;6.50;99.90;;;;;;4994715;28;20215;-85
2021/12/15 09:23:08;;;;;;;8.13;6.72;;;6.50;99.90;;;;;;4994804;28;20235;-84
2021/12/15 09:25:38;;;;;;;9.57;7.82;;;6.50;99.90;;;;;;4995096;28;20227;-84
2021/12/15 09:28:08;;;;;;;13.00;6.00;;;6.50;99.90;;;;;;4994870;28;20300;-84
2021/12/15 09:30:43;;;;;;;5.68;5.18;;;6.50;99.90;;;;;;4994207;28;20204;-85
2021/12/15 09:33:13;;;;;;;7.03;6.22;;;6.50;99.90;;;;;;4994943;28;20275;-84
2021/12/15 09:35:42;;;;;;;8.70;7.55;;;6.50;99.90;;;;;;4994537;28;20227;-85
2021/12/15 09:38:10;;;;;;;9.82;7.97;;;6.50;99.90;;;;;;4994535;28;20283;-84
2021/12/15 09:40:40;;;;;;;11.75;6.80;;;6.50;99.90;;;;;;4993945;28;20295;-84
2021/12/15 09:43:11;;;;;;;7.55;6.85;;;6.50;99.90;;;;;;4994741;28;20212;-84
2021/12/15 09:45:48;;;;;;;6.45;5.95;;;6.50;99.90;;;;;;4994966;28;20253;-84
2021/12/15 10:02:27;;;;;;;5.68;5.18;;;6.90;99.90;;;;;;4993914;28;20291;-85
2021/12/15 10:05:07;;;;;;;7.28;5.88;;;6.90;99.90;;;;;;4994167;28;20204;-84
2021/12/15 10:19:18;;;;;;;6.03;5.43;;;6.70;99.90;;;;;;4993059;28;20227;-84
2021/12/15 10:22:06;;;;;;;4.93;4.55;;;6.70;99.90;;;;;;4994003;28;20220;-85
2021/12/15 10:24:46;;;;;;;6.15;5.38;;;6.70;99.90;;;;;;4993946;28;20212;-85
2021/12/15 10:27:17;;;;;;;6.57;5.93;;;6.70;99.90;;;;;;4993740;28;20322;-85
2021/12/15 10:30:08;;;;;;;6.57;5.80;;;6.70;99.90;;;;;;4993055;28;20235;-85
2021/12/15 10:32:40;;;;;;;6.43;5.82;;;6.70;99.90;;;;;;4993549;28;20209;-84
2021/12/15 10:35:12;;;;;;;6.43;5.45;;;6.80;99.90;;;;;;4993861;28;20286;-85
2021/12/15 10:37:42;;;;;;;7.00;6.30;;;6.80;99.90;;;;;;4993909;28;20231;-84
2021/12/15 10:40:21;;;;;;;6.22;5.60;;;6.80;99.90;;;;;;4992970;28;20199;-85
2021/12/15 10:43:01;;;;;;;6.32;5.72;;;6.80;99.90;;;;;;4993798;28;20211;-85
2021/12/15 10:45:37;;;;;;;5.88;5.38;;;7.00;99.90;;;;;;4993227;28;20208;-85
2021/12/15 10:48:14;;;;;;;5.70;5.22;;;7.00;99.90;;;;;;4993038;28;20231;-85
2021/12/15 10:50:43;;;;;;;5.35;4.93;;;7.00;99.90;;;;;;4993232;28;20241;-84
2021/12/15 10:53:11;;;;;;;5.38;4.95;;;7.00;99.90;;;;;;4993436;28;20208;-85
2021/12/15 10:55:40;;;;;;;6.57;5.65;;;7.00;99.90;;;;;;4993311;28;20311;-85
2021/12/15 10:58:38;;;;;;;4.65;4.30;;;7.10;99.90;;;;;;4992939;28;20314;-85
2021/12/15 11:01:23;;;;;;;5.72;5.22;;;7.20;99.90;;;;;;4993200;28;20288;-85
2021/12/15 11:03:53;;;;;;;6.80;5.40;;;7.30;99.90;;;;;;4993326;28;20203;-84
2021/12/15 11:06:23;;;;;;;6.20;5.63;;;7.30;99.90;;;;;;4993091;28;20235;-85
2021/12/15 11:09:11;;;;;;;5.05;4.60;;;7.30;99.90;;;;;;4992895;28;20286;-84
2021/12/15 11:11:57;;;;;;;5.75;5.18;;;7.30;99.90;;;;;;5002554;28;20230;-84
2021/12/15 11:14:29;;;;;;;6.07;5.47;;;7.30;99.90;;;;;;5001016;28;20254;-84
2021/12/15 11:17:11;;;;;;;6.00;5.10;;;7.30;99.90;;;;;;4993015;28;20228;-84
2021/12/15 11:19:51;;;;;;;4.82;4.43;;;7.40;99.90;;;;;;4992768;28;20279;-84
2021/12/15 11:22:44;;;;;;;4.95;4.57;;;7.40;99.90;;;;;;4993064;28;20211;-84
2021/12/15 11:25:19;;;;;;;5.90;5.00;;;7.30;99.90;;;;;;4992898;28;20262;-84
2021/12/15 11:27:51;;;;;;;4.90;4.50;;;7.30;99.90;;;;;;4992874;28;20235;-84
2021/12/15 11:30:27;;;;;;;4.43;4.07;;;7.30;99.90;;;;;;4992673;28;20231;-84
2021/12/15 11:32:57;;;;;;;4.93;4.53;;;7.30;99.90;;;;;;4992847;28;20231;-85
2021/12/15 11:35:32;;;;;;;7.03;4.75;;;7.30;99.90;;;;;;4992678;28;20215;-84
2021/12/15 11:38:05;;;;;;;4.55;4.20;;;7.30;99.90;;;;;;4993202;28;20251;-84
2021/12/15 11:40:39;;;;;;;5.03;4.63;;;7.30;99.90;;;;;;4992817;28;20216;-84
2021/12/15 11:43:08;;;;;;;4.70;4.30;;;7.30;99.90;;;;;;4993000;28;20234;-84
2021/12/15 11:45:42;;;;;;;5.18;4.72;;;7.20;99.90;;;;;;4993369;28;20199;-84
2021/12/15 11:48:20;;;;;;;4.60;4.20;;;7.20;99.90;;;;;;4992531;28;20319;-84
2021/12/15 11:50:53;;;;;;;4.80;4.40;;;7.20;99.90;;;;;;4992472;28;20266;-84
2021/12/15 11:53:36;;;;;;;5.43;4.93;;;7.30;99.90;;;;;;4992506;28;20203;-84
2021/12/15 11:56:21;;;;;;;6.15;5.05;;;7.30;99.90;;;;;;4992976;28;20234;-84
2021/12/15 11:58:55;;;;;;;5.07;4.68;;;7.40;99.90;;;;;;4993199;28;20224;-84
2021/12/15 12:01:42;;;;;;;6.78;5.10;;;7.50;99.90;;;;;;4996445;28;20299;-84
2021/12/15 12:04:30;;;;;;;5.47;4.97;;;7.40;99.90;;;;;;4996409;28;20207;-84
2021/12/15 12:07:13;;;;;;;6.93;6.22;;;7.50;99.90;;;;;;4996780;28;20319;-85
2021/12/15 12:09:45;;;;;;;5.63;5.13;;;7.60;99.90;;;;;;4996339;28;20231;-84
2021/12/15 12:12:16;;;;;;;6.00;5.10;;;7.70;99.90;;;;;;4996784;28;20303;-84
2021/12/15 12:14:49;;;;;;;5.95;5.35;;;7.70;99.90;;;;;;4996411;28;20227;-84
2021/12/15 12:17:21;;;;;;;4.55;4.13;;;7.80;99.90;;;;;;4995919;28;20363;-84
2021/12/15 12:19:56;;;;;;;4.63;4.22;;;7.70;99.90;;;;;;4996308;28;20234;-84
2021/12/15 12:22:29;;;;;;;4.85;4.45;;;7.60;99.90;;;;;;4996033;28;20295;-84
2021/12/15 12:25:00;;;;;;;4.25;3.90;;;7.50;99.90;;;;;;4996031;28;20208;-84
2021/12/15 12:27:32;;;;;;;5.18;4.68;;;7.50;99.90;;;;;;4995986;28;20232;-83
2021/12/15 12:30:05;;;;;;;4.55;4.15;;;7.40;99.90;;;;;;4994749;28;20319;-84
2021/12/15 12:32:34;;;;;;;6.03;4.95;;;7.40;99.90;;;;;;4996335;28;20207;-84
2021/12/15 12:35:04;;;;;;;4.32;3.92;;;7.50;99.90;;;;;;4996175;28;20234;-84
2021/12/15 12:37:35;;;;;;;4.65;4.30;;;7.60;99.90;;;;;;4995642;28;20243;-84
2021/12/15 12:40:18;;;;;;;4.38;3.97;;;7.90;99.90;;;;;;4995231;28;20254;-84
2021/12/15 12:42:46;;;;;;;5.22;4.75;;;8.20;99.90;;;;;;4995721;28;20207;-84
2021/12/15 12:45:33;;;;;;;4.47;4.10;;;8.40;99.90;;;;;;4995924;28;20204;-84
2021/12/15 12:48:29;;;;;;;4.25;3.40;;;8.50;99.90;;;;;;4995586;28;20231;-84
2021/12/15 13:00:10;;;;;;;4.53;4.13;;;8.40;99.90;;;;;;4994980;28;20223;-84
2021/12/15 13:02:48;;;;;;;5.05;4.45;;;8.60;99.90;;;;;;4995414;28;20216;-84
2021/12/15 13:05:41;;;;;;;5.50;4.00;;;8.70;99.90;;;;;;4995195;28;20227;-84
2021/12/15 13:08:12;;;;;;;4.22;3.83;;;8.90;99.90;;;;;;4995323;28;20235;-84
2021/12/15 13:11:05;;;;;;;3.88;3.45;;;9.10;99.90;;;;;;4994122;28;20227;-84
2021/12/15 13:13:37;;;;;;;4.32;3.92;;;9.00;99.90;;;;;;5004660;28;20211;-83
2021/12/15 13:16:09;;;;;;;4.40;4.00;;;8.90;99.90;;;;;;5005453;28;20212;-83
2021/12/15 13:18:49;;;;;;;4.22;3.83;;;8.60;99.90;;;;;;4998753;28;20235;-84
2021/12/15 13:21:22;;;;;;;6.60;4.60;;;8.50;99.90;;;;;;4995384;28;20203;-84
2021/12/15 13:23:55;;;;;;;4.20;3.80;;;8.40;99.90;;;;;;4995193;28;20200;-84
2021/12/15 13:29:40;;;;;;;3.47;3.22;;;8.00;99.90;;;;;;4994004;28;20314;-84
2021/12/15 13:32:12;;;;;;;4.38;4.07;;;7.80;99.90;;;;;;4994719;28;20258;-84
2021/12/15 13:34:45;;;;;;;4.60;4.13;;;7.80;99.90;;;;;;4994894;28;20204;-83
2021/12/15 13:37:53;;;;;;;4.65;4.25;;;7.70;99.90;;;;;;4994861;28;20227;-84
2021/12/15 13:40:54;;;;;;;4.47;4.07;;;7.70;99.90;;;;;;4994440;28;20203;-84
2021/12/15 13:43:47;;;;;;;3.90;3.60;;;7.60;99.90;;;;;;4994818;28;20238;-84
2021/12/15 13:46:44;;;;;;;6.60;4.28;;;7.50;99.90;;;;;;4994337;28;20266;-84
2021/12/15 13:49:45;;;;;;;5.35;4.85;;;7.50;99.90;;;;;;4994247;28;20251;-84
2021/12/15 13:52:26;;;;;;;5.20;4.70;;;7.40;99.90;;;;;;4994528;28;20208;-84
2021/12/15 13:55:05;;;;;;;4.68;4.28;;;7.40;99.90;;;;;;4994509;28;20207;-84
2021/12/15 13:57:38;;;;;;;4.80;4.40;;;7.40;99.90;;;;;;4994214;28;20224;-84
2021/12/15 14:00:19;;;;;;;5.63;4.10;;;7.40;99.90;;;;;;4993625;28;20234;-84
2021/12/15 14:03:13;;;;;;;4.93;4.43;;;7.40;99.90;;;;;;4994658;28;20219;-84
2021/12/15 14:05:45;;;;;;;5.47;4.97;;;7.40;99.90;;;;;;4994075;28;20211;-84
2021/12/15 14:08:17;;;;;;;4.60;4.20;;;7.40;99.90;;;;;;4994169;28;20230;-84
2021/12/15 14:10:58;;;;;;;5.93;5.32;;;7.40;99.90;;;;;;4993326;28;20302;-84
2021/12/15 14:14:02;;;;;;;5.75;5.15;;;7.40;99.90;;;;;;4994678;28;20207;-84
2021/12/15 14:16:54;;;;;;;5.45;4.90;;;7.30;99.90;;;;;;4993825;28;20204;-84
2021/12/15 14:19:28;;;;;;;6.60;4.22;;;7.30;99.90;;;;;;4993391;28;20210;-84
2021/12/15 14:22:03;;;;;;;5.03;4.63;;;7.20;99.90;;;;;;4993313;28;20204;-84
2021/12/15 14:24:32;;;;;;;4.60;4.22;;;7.20;99.90;;;;;;4994171;28;20196;-84
2021/12/15 14:27:01;;;;;;;5.10;4.57;;;7.20;99.90;;;;;;4993824;28;20239;-84
2021/12/15 14:29:31;;;;;;;4.75;4.35;;;7.10;99.90;;;;;;4993411;28;20212;-84
2021/12/15 14:32:04;;;;;;;5.10;4.65;;;7.20;99.90;;;;;;4993804;28;20254;-84
2021/12/15 14:34:35;;;;;;;5.25;4.75;;;7.10;99.90;;;;;;4993757;28;20212;-84